Time;durP1;ratioP1;P1;durP2;ratioP2;P2;SDS_P1;SDS_P2;PMS_P1;PMS_P2;Temp;Humidity;BMP_temperature;BMP_pressure;BME280_temperature;BME280_humidity;BME280_pressure;Samples;Min_cycle;Max_cycle;Signal;HPM_P1;HPM_P2
2022/10/24 00:01:28;;;;;;;3.70;2.83;;;;;;;11.29;66.08;95525.63;5081540;28;20383;-73
2022/10/24 00:03:53;;;;;;;4.07;2.70;;;;;;;11.34;66.12;95524.34;5070261;28;20051;-74
2022/10/24 00:06:19;;;;;;;5.65;3.10;;;;;;;11.53;65.29;95518.59;5071388;28;20078;-74
2022/10/24 00:08:45;;;;;;;4.28;2.58;;;;;;;11.59;65.20;95512.94;5053633;28;20056;-73
2022/10/24 00:11:12;;;;;;;11.60;5.45;;;;;;;11.51;64.84;95524.84;5068207;28;20461;-73
2022/10/24 00:13:38;;;;;;;7.72;4.53;;;;;;;11.30;64.92;95502.09;5070615;28;20036;-74
2022/10/24 00:16:03;;;;;;;7.57;4.35;;;;;;;11.25;65.39;95511.19;5072228;28;20505;-72
2022/10/24 00:18:29;;;;;;;4.40;2.85;;;;;;;11.33;65.66;95517.47;5053696;28;20028;-72
2022/10/24 00:20:54;;;;;;;4.53;2.85;;;;;;;11.39;65.67;95519.63;5073382;28;20020;-72
2022/10/24 00:23:20;;;;;;;4.97;2.67;;;;;;;11.41;65.33;95499.50;5071904;28;20036;-72
2022/10/24 00:25:45;;;;;;;4.53;3.20;;;;;;;11.66;64.45;95515.88;5090048;28;20058;-72
2022/10/24 00:28:10;;;;;;;5.60;4.20;;;;;;;11.58;64.18;95516.44;5091800;28;20032;-72
2022/10/24 00:30:36;;;;;;;5.53;3.88;;;;;;;11.44;64.29;95514.06;5080382;28;20048;-72
2022/10/24 00:33:01;;;;;;;22.50;12.95;;;;;;;11.35;64.63;95517.38;5074144;28;20032;-72
2022/10/24 00:35:27;;;;;;;18.35;10.38;;;;;;;11.52;63.85;95516.09;5091520;28;20081;-72
2022/10/24 00:37:52;;;;;;;22.20;12.48;;;;;;;11.51;63.73;95515.28;5090151;28;20032;-72
2022/10/24 00:40:18;;;;;;;10.25;6.15;;;;;;;11.16;64.43;95505.72;5089730;28;20093;-72
2022/10/24 00:42:43;;;;;;;8.88;5.35;;;;;;;11.11;64.60;95515.63;5088528;28;20039;-72
2022/10/24 00:45:43;;;;;;;6.55;3.65;;;;;;;11.03;65.02;95523.19;5071913;28;20040;-72
2022/10/24 00:48:15;;;;;;;4.85;3.45;;;;;;;10.98;65.36;95511.44;5071269;28;20033;-72
2022/10/24 00:50:41;;;;;;;6.57;3.13;;;;;;;10.80;65.91;95508.44;5069858;28;20290;-72
2022/10/24 00:53:07;;;;;;;4.95;3.47;;;;;;;10.74;66.33;95510.53;5052836;28;20098;-72
2022/10/24 00:55:32;;;;;;;5.63;3.80;;;;;;;10.87;65.74;95520.03;5052640;28;20032;-72
2022/10/24 00:58:00;;;;;;;5.75;3.67;;;;;;;10.76;66.10;95523.41;5075891;28;20028;-73
2022/10/24 01:00:28;;;;;;;5.80;3.17;;;;;;;10.58;65.71;95503.94;5069108;28;20039;-72
2022/10/24 01:02:54;;;;;;;6.00;3.05;;;;;;;10.61;65.76;95519.31;5069663;28;20055;-72
2022/10/24 01:05:19;;;;;;;5.78;3.65;;;;;;;10.60;65.42;95508.09;5071803;28;20490;-73
2022/10/24 01:08:08;;;;;;;5.82;4.38;;;;;;;10.35;66.46;95526.38;5050661;28;20051;-72
2022/10/24 01:11:24;;;;;;;7.05;5.20;;;;;;;10.27;67.27;95521.72;5068807;28;20190;-72
2022/10/24 01:14:05;;;;;;;7.07;4.50;;;;;;;10.19;67.20;95513.59;5069141;28;20049;-72
2022/10/24 01:16:34;;;;;;;;;;;;;;;10.17;67.57;95518.06;5059960;28;20032;-72
2022/10/24 01:19:02;;;;;;;7.03;4.28;;;;;;;10.07;67.41;95525.69;5090473;28;19931;-72
2022/10/24 01:21:29;;;;;;;6.18;4.63;;;;;;;9.92;68.25;95524.97;5090699;28;20047;-72
2022/10/24 01:24:13;;;;;;;7.95;4.45;;;;;;;9.96;68.05;95525.59;5089407;28;20114;-72
2022/10/24 01:26:57;;;;;;;6.53;4.50;;;;;;;9.90;68.10;95534.63;5089456;28;20028;-72
2022/10/24 01:29:31;;;;;;;7.85;5.13;;;;;;;9.97;68.09;95528.09;5090969;28;20472;-73
2022/10/24 01:32:18;;;;;;;8.63;5.07;;;;;;;9.95;68.19;95526.53;5090537;28;20039;-72
2022/10/24 01:34:51;;;;;;;7.20;4.22;;;;;;;9.76;68.48;95514.81;5048287;28;20059;-72
2022/10/24 01:37:20;;;;;;;5.35;3.20;;;;;;;9.78;68.85;95532.88;5058092;28;20062;-72
2022/10/24 01:39:51;;;;;;;5.07;3.28;;;;;;;9.70;69.03;95523.03;5052851;28;20054;-72
2022/10/24 01:42:18;;;;;;;6.38;3.45;;;;;;;9.70;69.08;95533.41;5052749;28;20055;-72
2022/10/24 01:44:44;;;;;;;6.25;3.42;;;;;;;9.65;69.49;95513.91;5069256;28;20032;-72
2022/10/24 01:47:21;;;;;;;3.33;2.67;;;;;;;9.51;70.02;95531.22;5057814;28;20032;-72
2022/10/24 01:49:59;;;;;;;4.97;3.22;;;;;;;9.46;69.30;95514.31;5072794;28;20481;-72
2022/10/24 01:52:26;;;;;;;7.57;3.22;;;;;;;9.36;69.20;95520.09;5036757;28;20036;-73
2022/10/24 01:54:52;;;;;;;7.95;3.10;;;;;;;9.32;69.67;95521.22;5052436;28;20115;-73
2022/10/24 01:57:17;;;;;;;6.55;3.05;;;;;;;9.33;69.07;95520.31;5061794;28;20032;-72
2022/10/24 01:59:47;;;;;;;5.20;2.90;;;;;;;9.37;69.54;95520.94;5068387;28;20037;-72
2022/10/24 02:02:17;;;;;;;4.00;2.92;;;;;;;9.21;68.74;95508.16;5067969;28;20103;-72
2022/10/24 02:05:05;;;;;;;4.43;3.22;;;;;;;9.24;69.46;95510.53;5051754;28;20486;-72
2022/10/24 02:07:31;;;;;;;5.45;3.42;;;;;;;9.26;69.65;95513.88;5071550;28;20508;-73
2022/10/24 02:09:58;;;;;;;5.43;3.47;;;;;;;9.14;70.36;95515.53;5072490;28;20052;-72
2022/10/24 02:12:24;;;;;;;5.32;3.88;;;;;;;9.34;69.58;95511.59;5077445;28;20456;-73
2022/10/24 02:14:52;;;;;;;5.10;3.53;;;;;;;9.30;69.80;95517.06;5075871;28;20111;-72
2022/10/24 02:17:18;;;;;;;5.25;3.60;;;;;;;9.10;71.18;95506.25;5060918;28;20053;-72
2022/10/24 02:19:43;;;;;;;4.50;3.28;;;;;;;9.20;71.38;95513.47;5073621;28;20036;-72
2022/10/24 02:22:19;;;;;;;7.30;4.05;;;;;;;9.19;70.65;95512.59;5058342;28;20039;-72
2022/10/24 02:24:49;;;;;;;7.75;5.68;;;;;;;9.11;71.04;95520.06;5092624;28;20118;-72
2022/10/24 02:27:17;;;;;;;7.80;5.72;;;;;;;9.15;70.85;95503.38;5076158;28;20031;-72
2022/10/24 02:30:01;;;;;;;8.20;4.75;;;;;;;9.06;70.23;95515.19;5075938;28;20036;-72
2022/10/24 02:32:33;;;;;;;8.57;4.45;;;;;;;9.10;70.66;95508.03;5075651;28;20024;-72
2022/10/24 02:34:58;;;;;;;7.63;3.33;;;;;;;9.08;71.19;95520.25;5055662;28;20482;-72
2022/10/24 02:37:24;;;;;;;6.05;3.38;;;;;;;8.98;71.30;95504.50;5078686;28;20032;-72
2022/10/24 02:39:50;;;;;;;5.97;3.53;;;;;;;8.99;71.75;95519.09;5075589;28;20031;-73
2022/10/24 02:42:15;;;;;;;5.80;3.60;;;;;;;8.91;71.36;95503.22;5075415;28;20524;-72
2022/10/24 02:44:41;;;;;;;6.60;3.63;;;;;;;8.94;71.95;95506.47;5058731;28;20039;-72
2022/10/24 02:47:06;;;;;;;7.07;3.63;;;;;;;8.89;71.85;95518.88;5078756;28;20033;-72
2022/10/24 02:49:32;;;;;;;5.38;3.35;;;;;;;8.85;71.84;95509.63;5055315;28;20059;-72
2022/10/24 02:51:58;;;;;;;5.13;3.67;;;;;;;8.86;72.61;95506.13;5055187;28;20060;-72
2022/10/24 02:54:23;;;;;;;6.30;3.85;;;;;;;8.88;72.35;95506.84;5071594;28;20406;-72
2022/10/24 02:57:01;;;;;;;5.82;4.07;;;;;;;9.02;71.76;95510.28;5091863;28;20032;-72
2022/10/24 02:59:26;;;;;;;6.32;3.92;;;;;;;8.99;71.81;95510.50;5040061;28;20513;-72
2022/10/24 03:01:52;;;;;;;7.20;3.53;;;;;;;9.05;71.88;95510.91;5072561;28;20036;-72
2022/10/24 03:04:17;;;;;;;5.25;3.65;;;;;;;9.05;71.75;95507.50;5072764;28;20041;-72
2022/10/24 03:06:42;;;;;;;4.93;3.60;;;;;;;9.17;71.52;95520.50;5072826;28;20036;-72
2022/10/24 03:09:08;;;;;;;5.35;3.60;;;;;;;9.11;71.59;95512.28;5071488;28;20056;-72
2022/10/24 03:11:33;;;;;;;6.05;4.20;;;;;;;9.07;71.83;95510.84;5054857;28;20032;-73
2022/10/24 03:13:59;;;;;;;6.10;3.55;;;;;;;9.12;71.49;95508.78;5073343;28;20090;-72
2022/10/24 03:16:25;;;;;;;5.57;3.95;;;;;;;9.09;71.30;95507.22;5054782;28;20413;-72
2022/10/24 03:18:51;;;;;;;6.57;3.92;;;;;;;9.09;71.35;95508.97;5072447;28;20387;-72
2022/10/24 03:21:16;;;;;;;5.82;3.95;;;;;;;9.01;71.74;95514.66;5072552;28;20087;-72
2022/10/24 03:23:42;;;;;;;5.20;3.65;;;;;;;9.10;71.29;95503.69;5071092;28;20036;-72
2022/10/24 03:26:07;;;;;;;5.70;3.60;;;;;;;9.05;71.44;95512.69;5072336;28;20024;-73
2022/10/24 03:28:32;;;;;;;5.70;3.60;;;;;;;9.02;71.72;95499.94;5057733;28;20039;-73
2022/10/24 03:30:58;;;;;;;4.63;3.53;;;;;;;9.01;71.54;95508.66;5057839;28;20028;-72
2022/10/24 03:33:23;;;;;;;5.13;3.30;;;;;;;8.85;71.54;95509.63;5074352;28;20044;-73
2022/10/24 03:35:52;;;;;;;5.65;3.45;;;;;;;8.83;71.79;95506.34;5071875;28;20063;-72
2022/10/24 03:38:18;;;;;;;6.30;3.22;;;;;;;8.75;72.04;95508.59;5081095;28;20031;-73
2022/10/24 03:40:44;;;;;;;4.75;3.45;;;;;;;8.57;72.54;95515.75;5071021;28;20024;-72
2022/10/24 03:43:09;;;;;;;5.78;3.75;;;;;;;8.57;72.75;95510.59;5071005;28;20044;-72
2022/10/24 03:45:36;;;;;;;8.07;4.40;;;;;;;8.58;72.39;95516.59;5073111;28;20405;-72
2022/10/24 03:48:02;;;;;;;7.25;3.72;;;;;;;8.57;72.30;95509.75;5072271;28;20036;-73
2022/10/24 03:50:28;;;;;;;5.88;4.22;;;;;;;8.45;72.46;95509.59;5054165;28;20115;-72
2022/10/24 03:52:53;;;;;;;5.38;3.22;;;;;;;8.54;72.27;95512.53;5054036;28;20528;-72
2022/10/24 03:55:19;;;;;;;5.80;3.75;;;;;;;8.36;72.43;95502.41;5070510;28;20300;-72
2022/10/24 03:57:44;;;;;;;6.03;3.50;;;;;;;8.32;72.14;95506.09;5080028;28;20461;-73
2022/10/24 04:00:10;;;;;;;5.57;3.65;;;;;;;8.34;72.54;95521.53;5083630;28;20060;-72
2022/10/24 04:02:35;;;;;;;6.30;3.60;;;;;;;8.37;72.54;95518.75;5081164;28;20028;-73
2022/10/24 04:05:01;;;;;;;6.57;3.70;;;;;;;8.32;72.80;95516.44;5092069;28;20397;-72
2022/10/24 04:07:26;;;;;;;6.25;3.72;;;;;;;8.27;72.70;95508.13;5084600;28;20096;-73
2022/10/24 04:09:52;;;;;;;6.80;3.80;;;;;;;8.25;72.90;95502.25;5073774;28;20082;-72
2022/10/24 04:12:17;;;;;;;7.25;3.65;;;;;;;8.31;72.43;95509.63;5073457;28;20035;-72
2022/10/24 04:14:42;;;;;;;6.68;4.00;;;;;;;8.18;72.68;95498.38;5073672;28;20054;-72
2022/10/24 04:17:08;;;;;;;6.40;4.00;;;;;;;8.10;73.42;95485.91;5090307;28;20220;-72
2022/10/24 04:19:34;;;;;;;8.05;4.65;;;;;;;8.27;73.14;95506.41;5089940;28;20032;-73
2022/10/24 04:21:59;;;;;;;10.57;4.60;;;;;;;8.25;73.40;95503.06;5073481;28;20095;-72
2022/10/24 04:24:24;;;;;;;7.25;4.45;;;;;;;8.22;73.18;95502.44;5090350;28;20024;-73
2022/10/24 04:26:50;;;;;;;7.00;4.15;;;;;;;8.11;73.56;95499.66;5090371;28;20493;-73
2022/10/24 04:29:15;;;;;;;6.78;3.85;;;;;;;8.08;73.70;95495.53;5072953;28;20433;-72
2022/10/24 04:31:41;;;;;;;7.55;3.90;;;;;;;8.05;74.20;95499.13;5084026;28;20028;-73
2022/10/24 04:34:06;;;;;;;6.28;3.58;;;;;;;8.07;74.22;95507.63;5060781;28;20031;-72
2022/10/24 04:36:32;;;;;;;6.97;3.63;;;;;;;7.95;73.99;95492.88;5090842;28;20031;-72
2022/10/24 04:38:58;;;;;;;4.30;3.40;;;;;;;7.90;73.72;95488.91;5079592;28;20110;-72
2022/10/24 04:41:23;;;;;;;5.90;3.70;;;;;;;7.95;73.84;95508.38;5070862;28;20024;-72
2022/10/24 04:43:48;;;;;;;6.75;3.45;;;;;;;7.96;74.53;95509.22;5080856;28;20094;-72
2022/10/24 04:46:14;;;;;;;5.65;3.60;;;;;;;8.00;74.71;95516.69;5069391;28;20020;-72
2022/10/24 04:48:39;;;;;;;5.55;3.55;;;;;;;8.01;75.04;95513.19;5069506;28;20501;-72
2022/10/24 04:51:05;;;;;;;5.47;3.53;;;;;;;8.02;74.84;95514.88;5053040;28;20035;-72
2022/10/24 04:53:30;;;;;;;5.75;3.92;;;;;;;8.03;75.35;95520.84;5053232;28;20043;-72
2022/10/24 04:55:56;;;;;;;7.63;4.68;;;;;;;7.95;75.44;95521.31;5088132;28;20036;-72
2022/10/24 04:58:21;;;;;;;6.95;3.95;;;;;;;8.07;75.00;95528.31;5086122;28;20029;-72
2022/10/24 05:00:48;;;;;;;7.03;3.90;;;;;;;8.07;75.51;95524.91;5056506;28;20027;-72
2022/10/24 05:03:16;;;;;;;6.68;4.13;;;;;;;8.06;75.23;95533.59;5088719;28;20084;-73
2022/10/24 05:05:41;;;;;;;7.53;4.05;;;;;;;8.07;74.81;95524.91;5089714;28;20046;-72
2022/10/24 05:08:06;;;;;;;8.05;4.25;;;;;;;8.11;74.80;95528.13;5087658;28;20063;-72
2022/10/24 05:10:32;;;;;;;5.88;3.92;;;;;;;8.19;74.73;95525.91;5076869;28;20095;-72
2022/10/24 05:12:57;;;;;;;9.00;4.65;;;;;;;8.10;75.50;95518.72;5084351;28;20036;-72
2022/10/24 05:15:23;;;;;;;8.32;4.03;;;;;;;8.19;74.86;95531.06;5088145;28;20124;-72
2022/10/24 05:17:48;;;;;;;7.13;3.95;;;;;;;8.20;75.04;95527.59;5078287;28;20494;-72
2022/10/24 05:20:14;;;;;;;6.72;3.72;;;;;;;8.11;75.00;95525.53;5080301;28;20029;-73
2022/10/24 05:22:39;;;;;;;5.82;3.72;;;;;;;8.24;74.47;95529.03;5071256;28;20063;-72
2022/10/24 05:25:05;;;;;;;6.50;3.83;;;;;;;8.26;74.75;95527.19;5069475;28;20029;-72
2022/10/24 05:27:31;;;;;;;5.82;3.55;;;;;;;8.42;74.40;95540.88;5067503;28;20032;-72
2022/10/24 05:29:56;;;;;;;6.07;3.78;;;;;;;8.33;74.65;95538.84;5089398;28;20032;-73
2022/10/24 05:32:22;;;;;;;5.68;3.80;;;;;;;8.43;75.29;95534.75;5089042;28;20048;-72
2022/10/24 05:34:47;;;;;;;6.53;3.60;;;;;;;8.45;75.00;95539.84;5058390;28;20087;-73
2022/10/24 05:37:13;;;;;;;6.90;4.00;;;;;;;8.48;74.98;95537.91;5074334;28;20051;-71
2022/10/24 05:39:38;;;;;;;7.38;4.22;;;;;;;8.41;75.34;95535.78;5077191;28;20123;-72
2022/10/24 05:42:04;;;;;;;5.28;3.65;;;;;;;8.57;75.10;95536.47;5068115;28;20647;-71
2022/10/24 05:44:29;;;;;;;5.43;3.70;;;;;;;8.62;75.15;95526.66;5065510;28;20181;-73
2022/10/24 05:46:55;;;;;;;7.55;3.72;;;;;;;8.71;74.87;95525.25;5082074;28;20024;-74
2022/10/24 05:49:21;;;;;;;7.30;3.92;;;;;;;8.78;74.72;95525.69;5061540;28;20050;-73
2022/10/24 05:51:46;;;;;;;7.30;3.72;;;;;;;8.98;74.14;95535.59;5078318;28;20028;-72
2022/10/24 05:54:11;;;;;;;7.15;4.22;;;;;;;8.91;74.49;95527.41;5076580;28;20067;-75
2022/10/24 05:56:37;;;;;;;6.60;4.22;;;;;;;8.94;74.55;95537.56;5083652;28;20459;-72
2022/10/24 05:59:02;;;;;;;6.85;3.65;;;;;;;8.95;74.85;95531.44;5077995;28;20032;-71
2022/10/24 06:01:29;;;;;;;4.68;3.63;;;;;;;9.11;74.20;95527.81;5061024;28;20044;-72
2022/10/24 06:03:54;;;;;;;6.38;4.43;;;;;;;9.27;74.13;95540.63;5081323;28;20036;-69
2022/10/24 06:06:20;;;;;;;6.82;4.50;;;;;;;9.31;74.33;95552.47;5081308;28;20502;-69
2022/10/24 06:08:45;;;;;;;6.47;4.50;;;;;;;9.36;74.23;95559.00;5084700;28;20056;-70
2022/10/24 06:11:10;;;;;;;6.85;3.88;;;;;;;9.31;74.38;95566.25;5082985;28;20024;-70
2022/10/24 06:13:36;;;;;;;7.82;4.50;;;;;;;9.44;74.04;95562.84;5072740;28;20351;-70
2022/10/24 06:16:02;;;;;;;6.10;4.30;;;;;;;9.61;73.52;95570.31;5070435;28;20509;-70
2022/10/24 06:18:28;;;;;;;6.95;4.60;;;;;;;9.64;73.43;95570.13;5057754;28;20064;-70
2022/10/24 06:20:53;;;;;;;8.02;4.13;;;;;;;9.66;73.32;95570.84;5069575;28;20035;-70
2022/10/24 06:23:18;;;;;;;10.32;5.43;;;;;;;9.72;73.28;95567.00;5070342;28;20571;-71
2022/10/24 06:25:44;;;;;;;7.95;4.75;;;;;;;9.75;72.89;95554.69;5069999;28;20389;-70
2022/10/24 06:28:11;;;;;;;8.90;4.68;;;;;;;10.21;71.69;95564.47;5071157;28;20044;-70
2022/10/24 06:30:38;;;;;;;8.32;5.05;;;;;;;10.62;70.31;95555.59;5071608;28;20025;-70
2022/10/24 06:33:03;;;;;;;6.60;4.60;;;;;;;10.97;69.63;95565.22;5069988;28;20464;-71
2022/10/24 06:35:29;;;;;;;7.57;4.70;;;;;;;11.39;68.08;95555.19;5071479;28;20036;-71
2022/10/24 06:37:54;;;;;;;7.93;4.03;;;;;;;11.97;65.92;95557.81;5071702;28;20028;-69
2022/10/24 06:40:19;;;;;;;5.03;3.85;;;;;;;12.40;64.14;95560.56;5070039;28;20021;-68
2022/10/24 06:42:45;;;;;;;9.52;4.47;;;;;;;12.63;61.79;95557.91;5070008;28;20098;-69
2022/10/24 06:45:10;;;;;;;7.13;5.07;;;;;;;12.59;61.56;95562.53;5069969;28;20344;-69
2022/10/24 06:47:36;;;;;;;9.40;5.13;;;;;;;12.78;61.39;95561.88;5070004;28;20032;-69
2022/10/24 06:50:01;;;;;;;9.73;5.15;;;;;;;13.18;60.15;95571.75;5069921;28;20506;-69
2022/10/24 06:52:27;;;;;;;9.10;6.10;;;;;;;13.05;60.17;95574.50;5052997;28;20417;-69
2022/10/24 06:54:52;;;;;;;7.05;5.13;;;;;;;13.08;60.26;95576.88;5072409;28;20029;-72
2022/10/24 06:57:18;;;;;;;14.57;6.97;;;;;;;13.27;60.37;95576.25;5055071;28;20048;-72
2022/10/24 06:59:43;;;;;;;12.45;5.85;;;;;;;13.44;59.75;95574.84;5071846;28;20025;-72
2022/10/24 07:02:11;;;;;;;6.95;5.03;;;;;;;13.76;59.44;95580.03;5071747;28;20051;-72
2022/10/24 07:04:38;;;;;;;10.82;5.68;;;;;;;13.99;58.65;95577.28;5055115;28;20085;-72
2022/10/24 07:07:03;;;;;;;7.95;5.22;;;;;;;14.71;56.26;95582.41;5071732;28;20033;-72
2022/10/24 07:09:29;;;;;;;12.23;5.22;;;;;;;15.25;55.20;95577.66;5071705;28;20551;-72
2022/10/24 07:11:55;;;;;;;10.50;5.80;;;;;;;15.95;53.42;95561.78;5072815;28;20036;-72
2022/10/24 07:14:20;;;;;;;9.52;6.55;;;;;;;16.78;50.75;95567.97;5071468;28;20081;-72
2022/10/24 07:16:45;;;;;;;12.95;5.97;;;;;;;17.45;49.26;95565.03;5071710;28;20028;-72
2022/10/24 07:19:11;;;;;;;10.13;6.18;;;;;;;18.19;46.91;95559.34;5072816;28;20025;-72
2022/10/24 07:21:37;;;;;;;9.40;5.93;;;;;;;18.92;45.07;95573.84;5072725;28;20421;-72
2022/10/24 07:24:02;;;;;;;12.30;5.93;;;;;;;19.31;44.15;95547.75;5054969;28;20405;-72
2022/10/24 07:26:28;;;;;;;19.60;7.10;;;;;;;19.75;42.68;95559.78;5071320;28;20551;-72
2022/10/24 07:28:55;;;;;;;12.80;6.75;;;;;;;20.12;42.10;95561.91;5071201;28;20445;-72
2022/10/24 07:31:21;;;;;;;13.68;6.60;;;;;;;20.52;41.08;95529.28;5071167;28;20486;-72
2022/10/24 07:33:47;;;;;;;15.15;7.30;;;;;;;21.22;39.25;95546.13;5054550;28;20028;-72
2022/10/24 07:36:19;;;;;;;11.30;6.00;;;;;;;21.90;37.62;95543.66;5071011;28;20021;-72
2022/10/24 07:38:48;;;;;;;11.32;5.82;;;;;;;22.19;37.24;95554.31;5054703;28;20033;-72
2022/10/24 07:41:13;;;;;;;11.27;4.97;;;;;;;22.53;36.82;95552.94;5054363;28;20024;-73
2022/10/24 07:43:39;;;;;;;15.32;5.60;;;;;;;22.94;35.81;95528.63;5070992;28;20036;-72
2022/10/24 07:46:06;;;;;;;9.00;5.25;;;;;;;23.54;34.89;95547.81;5070838;28;20028;-73
2022/10/24 07:48:32;;;;;;;11.90;5.20;;;;;;;23.80;34.57;95541.97;5070631;28;20044;-73
2022/10/24 07:50:58;;;;;;;9.02;5.38;;;;;;;24.12;33.56;95534.44;5054286;28;20028;-73
2022/10/24 07:53:26;;;;;;;9.98;5.72;;;;;;;24.13;33.61;95547.53;5072374;28;20032;-72
2022/10/24 07:55:53;;;;;;;13.73;4.70;;;;;;;23.57;34.06;95558.88;5071802;28;20104;-73
2022/10/24 07:58:18;;;;;;;7.45;4.65;;;;;;;22.85;35.19;95551.75;5072324;28;20111;-73
2022/10/24 08:00:44;;;;;;;7.82;4.78;;;;;;;22.32;36.19;95550.22;5070544;28;20478;-72
2022/10/24 08:03:09;;;;;;;8.10;4.70;;;;;;;21.82;37.36;95558.59;5072118;28;20045;-72
2022/10/24 08:05:40;;;;;;;11.95;5.03;;;;;;;21.38;38.29;95539.94;5071271;28;20456;-72
2022/10/24 08:08:05;;;;;;;10.75;4.88;;;;;;;21.10;38.77;95542.25;5071796;28;20052;-72
2022/10/24 08:10:31;;;;;;;13.20;5.03;;;;;;;20.71;39.35;95527.28;5054210;28;20078;-72
2022/10/24 08:12:56;;;;;;;7.85;5.28;;;;;;;20.52;40.12;95549.59;5070486;28;20481;-72
2022/10/24 08:15:24;;;;;;;13.65;5.60;;;;;;;20.35;40.84;95542.72;5037037;28;20414;-72
2022/10/24 08:17:50;;;;;;;11.02;4.53;;;;;;;20.05;41.55;95542.47;5071829;28;20068;-72
2022/10/24 08:20:15;;;;;;;9.13;5.10;;;;;;;20.03;41.24;95545.28;5070332;28;20051;-72
2022/10/24 08:22:41;;;;;;;7.78;5.65;;;;;;;19.98;41.38;95539.69;5070179;28;20402;-72
2022/10/24 08:25:08;;;;;;;9.52;5.55;;;;;;;19.84;41.98;95541.19;5071860;28;20028;-72
2022/10/24 08:27:34;;;;;;;8.48;4.53;;;;;;;19.77;41.85;95536.72;5053987;28;20062;-72
2022/10/24 08:29:59;;;;;;;7.13;4.28;;;;;;;19.76;41.91;95543.00;5071572;28;20056;-72
2022/10/24 08:32:25;;;;;;;6.45;4.25;;;;;;;19.51;42.10;95519.25;5071629;28;20493;-72
2022/10/24 08:34:50;;;;;;;10.45;4.60;;;;;;;19.56;42.25;95527.50;5070056;28;20405;-72
2022/10/24 08:37:16;;;;;;;5.55;4.35;;;;;;;19.59;42.20;95537.72;5069867;28;20028;-72
2022/10/24 08:39:41;;;;;;;6.68;4.10;;;;;;;19.63;42.30;95533.75;5037026;28;20081;-72
2022/10/24 08:42:09;;;;;;;7.80;4.18;;;;;;;19.55;42.10;95517.94;5071331;28;20040;-72
2022/10/24 08:44:36;;;;;;;7.07;3.85;;;;;;;19.49;42.39;95515.97;5053685;28;20028;-72
2022/10/24 08:47:19;;;;;;;7.85;4.10;;;;;;;19.44;42.42;95523.53;5069867;28;20028;-72
2022/10/24 08:49:54;;;;;;;11.55;3.97;;;;;;;19.09;42.88;95520.22;5071217;28;20033;-72
2022/10/24 08:52:43;;;;;;;9.85;4.00;;;;;;;18.92;43.70;95518.56;5052949;28;20509;-72
2022/10/24 08:55:49;;;;;;;7.07;3.90;;;;;;;19.09;43.43;95522.84;5065303;28;20041;-72
2022/10/24 08:58:44;;;;;;;5.35;3.60;;;;;;;19.14;43.22;95503.94;5071344;28;20040;-72
2022/10/24 09:01:15;;;;;;;8.55;3.95;;;;;;;19.15;43.62;95495.06;5069797;28;20129;-72
2022/10/24 09:03:48;;;;;;;7.40;3.63;;;;;;;19.14;43.53;95491.59;5053731;28;20095;-72
2022/10/24 09:06:19;;;;;;;5.32;3.67;;;;;;;19.23;43.18;95496.88;5069721;28;20059;-73
2022/10/24 09:08:57;;;;;;;5.88;3.65;;;;;;;19.27;43.21;95495.53;5053153;28;20050;-72
2022/10/24 09:11:47;;;;;;;5.80;3.72;;;;;;;19.25;43.18;95486.97;5069834;28;20464;-72
2022/10/24 09:14:18;;;;;;;6.30;4.38;;;;;;;19.37;42.71;95494.41;5069892;28;20474;-72
2022/10/24 09:16:44;;;;;;;;;;;;;;;19.36;43.07;95491.91;5058552;28;20040;-72
2022/10/24 09:19:14;;;;;;;6.00;3.40;;;;;;;19.36;42.82;95494.56;5076311;28;20397;-72
2022/10/24 09:21:40;;;;;;;6.15;3.92;;;;;;;19.25;43.00;95479.91;5076575;28;20524;-72
2022/10/24 09:24:06;;;;;;;8.10;3.50;;;;;;;19.33;43.11;95485.16;5076296;28;20032;-72
2022/10/24 09:26:31;;;;;;;7.38;3.75;;;;;;;19.29;43.42;95483.88;5076289;28;20531;-72
2022/10/24 09:28:57;;;;;;;7.07;3.78;;;;;;;19.51;43.16;95482.38;5076001;28;20039;-72
2022/10/24 09:31:24;;;;;;;4.78;3.35;;;;;;;19.47;42.77;95470.50;5076165;28;20017;-72
2022/10/24 09:33:51;;;;;;;6.35;3.88;;;;;;;19.51;42.75;95484.19;5042748;28;20510;-72
2022/10/24 09:36:18;;;;;;;6.50;3.47;;;;;;;19.53;42.79;95490.94;5059478;28;20035;-72
2022/10/24 09:38:43;;;;;;;4.88;3.42;;;;;;;19.55;43.03;95478.41;5059870;28;20033;-72
2022/10/24 09:41:26;;;;;;;9.05;4.20;;;;;;;19.69;42.76;95476.94;5076040;28;20051;-72
2022/10/24 09:43:56;;;;;;;7.32;3.80;;;;;;;19.57;42.00;95451.91;5076043;28;20025;-73
2022/10/24 09:46:25;;;;;;;7.05;4.35;;;;;;;19.68;42.44;95467.41;5060133;28;20081;-72
2022/10/24 09:49:13;;;;;;;7.85;5.00;;;;;;;19.70;42.61;95464.59;5076010;28;20033;-72
2022/10/24 09:51:47;;;;;;;8.10;3.83;;;;;;;19.78;42.23;95467.19;5077384;28;20494;-72
2022/10/24 09:54:18;;;;;;;7.13;4.47;;;;;;;19.87;42.24;95468.84;5059575;28;20039;-72
2022/10/24 09:57:12;;;;;;;6.47;3.70;;;;;;;19.84;42.48;95469.19;5077391;28;20052;-72
2022/10/24 10:00:02;;;;;;;9.25;4.78;;;;;;;19.86;42.38;95465.41;5076043;28;20024;-72
2022/10/24 10:02:35;;;;;;;7.97;3.53;;;;;;;19.78;42.18;95469.84;5075910;28;20045;-72
2022/10/24 10:05:03;;;;;;;7.55;4.57;;;;;;;19.89;42.29;95461.56;5076966;28;20052;-72
2022/10/24 10:07:29;;;;;;;9.43;5.88;;;;;;;19.95;42.40;95455.66;5077176;28;20036;-72
2022/10/24 10:09:56;;;;;;;7.68;4.93;;;;;;;19.90;42.21;95455.31;5075805;28;20056;-72
2022/10/24 10:12:36;;;;;;;7.30;3.90;;;;;;;20.03;41.89;95457.41;5075841;28;20058;-73
2022/10/24 10:15:22;;;;;;;8.77;3.90;;;;;;;20.02;42.12;95445.22;5059497;28;20494;-72
2022/10/24 10:17:49;;;;;;;6.60;4.05;;;;;;;20.15;42.20;95455.25;5077298;28;20040;-72
2022/10/24 10:20:39;;;;;;;8.18;3.88;;;;;;;20.05;42.25;95448.34;5059191;28;20048;-72
2022/10/24 10:23:26;;;;;;;9.02;4.25;;;;;;;20.23;41.86;95449.94;5039445;28;20048;-72
2022/10/24 10:26:02;;;;;;;8.93;4.00;;;;;;;20.31;41.61;95442.00;5075826;28;20468;-72
2022/10/24 10:28:27;;;;;;;7.07;3.58;;;;;;;20.42;41.44;95438.97;5055683;28;20048;-73
2022/10/24 10:30:54;;;;;;;6.90;3.85;;;;;;;20.36;41.65;95426.44;5073635;28;20560;-73
2022/10/24 10:33:20;;;;;;;6.18;3.40;;;;;;;20.52;41.57;95434.28;5039284;28;20158;-72
2022/10/24 10:36:01;;;;;;;7.53;3.40;;;;;;;20.52;41.29;95423.72;5073500;28;20036;-72
2022/10/24 10:38:42;;;;;;;10.13;3.83;;;;;;;20.67;41.18;95428.28;5056577;28;20040;-72
2022/10/24 10:41:21;;;;;;;7.65;3.47;;;;;;;20.61;41.22;95421.09;5073438;28;20021;-72
2022/10/24 10:44:04;;;;;;;6.45;3.65;;;;;;;20.66;41.19;95424.84;5056908;28;20558;-72
2022/10/24 10:46:30;;;;;;;6.53;3.55;;;;;;;20.78;41.35;95416.53;5073399;28;20111;-72
2022/10/24 10:49:01;;;;;;;6.88;3.92;;;;;;;20.77;40.72;95402.50;5073261;28;20104;-72
2022/10/24 10:51:49;;;;;;;9.07;3.65;;;;;;;20.93;40.70;95407.66;5072119;28;20033;-72
2022/10/24 10:54:43;;;;;;;7.93;3.78;;;;;;;20.91;40.43;95396.44;5057323;28;20494;-72
2022/10/24 10:57:15;;;;;;;10.65;3.70;;;;;;;20.90;40.50;95397.47;5054653;28;20504;-72
2022/10/24 10:59:57;;;;;;;6.85;3.60;;;;;;;21.11;40.19;95401.25;5055783;28;20031;-72
2022/10/24 11:02:31;;;;;;;9.10;3.78;;;;;;;20.94;40.08;95404.03;5055468;28;20059;-72
2022/10/24 11:05:15;;;;;;;12.52;8.30;;;;;;;21.16;40.00;95399.72;5055116;28;20028;-72
2022/10/24 11:07:56;;;;;;;12.85;5.82;;;;;;;21.22;40.14;95397.38;5071446;28;20031;-72
2022/10/24 11:10:25;;;;;;;15.88;7.70;;;;;;;21.23;40.15;95388.44;5071778;28;20021;-72
2022/10/24 11:12:50;;;;;;;10.82;5.90;;;;;;;21.25;40.25;95381.16;5073140;28;20501;-72
2022/10/24 11:15:42;;;;;;;13.65;7.63;;;;;;;21.28;39.78;95375.50;5054998;28;20032;-72
2022/10/24 11:18:11;;;;;;;16.42;7.95;;;;;;;21.34;39.65;95374.78;5053040;28;20049;-72
2022/10/24 11:20:47;;;;;;;13.27;6.43;;;;;;;21.34;39.62;95369.50;5054997;28;20036;-72
2022/10/24 11:23:28;;;;;;;12.05;5.20;;;;;;;21.39;39.48;95375.09;5071514;28;20101;-72
2022/10/24 11:25:56;;;;;;;9.32;4.18;;;;;;;21.36;39.95;95378.09;5072619;28;20471;-72
2022/10/24 11:28:38;;;;;;;12.57;6.75;;;;;;;21.49;39.40;95372.22;5071320;28;20044;-72
2022/10/24 11:31:12;;;;;;;15.82;6.45;;;;;;;21.52;39.59;95371.84;5071509;28;20028;-73
2022/10/24 11:33:46;;;;;;;9.38;4.28;;;;;;;21.53;39.45;95368.19;5071214;28;20036;-72
2022/10/24 11:36:46;;;;;;;14.05;3.75;;;;;;;21.58;38.98;95365.84;5054566;28;20036;-72
2022/10/24 11:39:22;;;;;;;8.05;3.67;;;;;;;21.55;38.85;95345.06;5071078;28;20494;-72
2022/10/24 11:41:50;;;;;;;7.70;3.92;;;;;;;21.60;38.19;95347.97;5054981;28;20422;-72
2022/10/24 11:44:33;;;;;;;12.25;4.05;;;;;;;21.80;38.75;95357.00;5071020;28;20115;-72
2022/10/24 11:47:32;;;;;;;10.70;4.03;;;;;;;21.98;38.66;95346.03;5072300;28;20093;-72